Inglis, Florida
Current Conditions -  °F | °C
As of 10:35 AM on Monday 22 Dec 2014 (Local Time) from KCGC Reporting Station
Overcast Overcast  
Wind Chill: 21°   Ceiling: 2600
Heat Index: 21°   Visibility: 10mi
Dew Point: 18°   Wind: 0mph
Humidity: 83%   Direction: NA
Pressure: 30"   Gusts: NA
Location:  29.03°N, 82.67°W
Report Text: KCGC 221535Z AUTO 00000KT 10SM BKN026 BKN033 OVC045 21/18 A3000 RMK AO2 LTG DSNT N AND NW
Loading
Personal Weather Stations






























Interactive Weather Map New forecast layout! Learn more

10-Day Weather Forecast

Advertisements
Track Severe Weather on mobile